createdAt,value
2023-04-06T00:02:11.861Z,1.89
2023-04-06T00:04:41.531Z,1.90
2023-04-06T00:07:09.923Z,1.87
2023-04-06T00:09:38.091Z,1.89
2023-04-06T00:12:06.833Z,1.89
2023-04-06T00:14:34.989Z,1.91
2023-04-06T00:17:03.200Z,1.93
2023-04-06T00:19:31.462Z,1.94
2023-04-06T00:22:01.549Z,1.95
2023-04-06T00:24:30.372Z,1.96
2023-04-06T00:26:58.516Z,1.98
2023-04-06T00:29:26.659Z,1.98
2023-04-06T00:31:54.797Z,1.97
2023-04-06T00:34:22.977Z,1.98
2023-04-06T00:36:51.792Z,1.98
2023-04-06T00:39:21.460Z,2.00
2023-04-06T00:41:52.377Z,1.99
2023-04-06T00:44:20.606Z,1.98
2023-04-06T00:46:48.792Z,2.02
2023-04-06T00:49:16.960Z,2.00
2023-04-06T00:51:45.600Z,2.00
2023-04-06T00:54:14.137Z,2.00
2023-04-06T00:56:46.458Z,1.99
2023-04-06T00:59:14.856Z,1.99
2023-04-06T01:01:44.223Z,2.00
2023-04-06T01:04:27.970Z,2.00
2023-04-06T01:06:56.708Z,2.04
2023-04-06T01:09:31.567Z,2.02
2023-04-06T01:12:05.532Z,2.01
2023-04-06T01:14:36.039Z,2.03
2023-04-06T01:17:04.304Z,2.02
2023-04-06T01:19:35.405Z,2.03
2023-04-06T01:22:04.163Z,1.99
2023-04-06T01:24:33.782Z,1.99
2023-04-06T01:27:29.124Z,2.00
2023-04-06T01:30:17.285Z,1.99
2023-04-06T01:33:02.237Z,1.98
2023-04-06T01:35:40.603Z,2.00
2023-04-06T01:38:27.442Z,2.01
2023-04-06T01:40:57.240Z,1.99
2023-04-06T01:43:27.652Z,1.97
2023-04-06T01:46:06.176Z,1.96
2023-04-06T01:48:38.007Z,1.95
2023-04-06T01:51:19.144Z,1.95
2023-04-06T01:53:56.373Z,1.94
2023-04-06T01:56:33.647Z,1.90
2023-04-06T01:59:22.331Z,1.87
2023-04-06T02:01:50.738Z,1.88
2023-04-06T02:04:19.794Z,1.88
2023-04-06T02:06:51.892Z,1.89
2023-04-06T02:09:24.358Z,1.90
2023-04-06T02:11:54.096Z,1.89
2023-04-06T02:14:23.777Z,1.90
2023-04-06T02:16:55.438Z,1.88
2023-04-06T02:19:24.550Z,1.85
2023-04-06T02:21:52.725Z,1.86
2023-04-06T02:24:20.927Z,1.85
2023-04-06T02:26:49.161Z,1.88
2023-04-06T02:29:19.168Z,1.86
2023-04-06T02:31:48.055Z,1.84
2023-04-06T02:34:18.778Z,1.82
2023-04-06T02:36:51.107Z,1.81
2023-04-06T02:39:19.594Z,1.81
2023-04-06T02:41:48.367Z,1.82
2023-04-06T02:44:22.880Z,1.83
2023-04-06T02:46:51.306Z,1.82
2023-04-06T02:49:19.461Z,1.82
2023-04-06T02:51:47.641Z,1.80
2023-04-06T02:54:26.827Z,1.75
2023-04-06T02:56:55.546Z,1.72
2023-04-06T02:59:29.606Z,1.71
2023-04-06T03:02:06.655Z,1.69
2023-04-06T03:04:34.860Z,1.63
2023-04-06T03:07:06.597Z,1.55
2023-04-06T03:09:38.930Z,1.52
2023-04-06T03:12:09.778Z,1.41
2023-04-06T03:14:56.209Z,1.41
2023-04-06T03:17:24.581Z,1.34
2023-04-06T03:19:52.817Z,1.26
2023-04-06T03:22:22.267Z,1.21
2023-04-06T03:24:50.873Z,1.21
2023-04-06T03:27:19.181Z,1.21
2023-04-06T03:29:48.937Z,1.23
2023-04-06T03:32:24.213Z,1.26
2023-04-06T03:34:52.541Z,1.25
2023-04-06T03:37:20.825Z,1.28
2023-04-06T03:39:54.796Z,1.28
2023-04-06T03:42:25.928Z,1.31
2023-04-06T03:44:58.894Z,1.32
2023-04-06T03:47:28.859Z,1.37
2023-04-06T03:50:00.966Z,1.38
2023-04-06T03:52:29.754Z,1.40
2023-04-06T03:54:57.918Z,1.42
2023-04-06T03:57:26.068Z,1.43
2023-04-06T03:59:54.235Z,1.44
2023-04-06T04:02:22.421Z,1.46
2023-04-06T04:04:54.124Z,1.46
2023-04-06T04:07:22.287Z,1.46
2023-04-06T04:09:50.519Z,1.48
2023-04-06T04:12:18.759Z,1.50
2023-04-06T04:14:46.968Z,1.49
2023-04-06T04:17:15.131Z,1.50
2023-04-06T04:19:43.620Z,1.50
2023-04-06T04:22:13.443Z,1.52
2023-04-06T04:24:43.232Z,1.48
2023-04-06T04:27:11.897Z,1.45
2023-04-06T04:29:41.679Z,1.45
2023-04-06T04:32:12.960Z,1.47
2023-04-06T04:34:41.886Z,1.48
2023-04-06T04:37:16.319Z,1.50
2023-04-06T04:39:50.561Z,1.52
2023-04-06T04:42:18.854Z,1.52
2023-04-06T04:44:52.229Z,1.53
2023-04-06T04:47:33.058Z,1.53
2023-04-06T04:50:01.631Z,1.53
2023-04-06T04:52:32.555Z,1.53
2023-04-06T04:55:22.605Z,1.53
2023-04-06T04:57:55.333Z,1.52
2023-04-06T05:00:30.462Z,1.54
2023-04-06T05:03:00.804Z,1.55
2023-04-06T05:05:32.103Z,1.57
2023-04-06T05:08:02.536Z,1.58
2023-04-06T05:10:42.996Z,1.60
2023-04-06T05:13:11.218Z,1.63
2023-04-06T05:15:41.342Z,1.64
2023-04-06T05:18:21.346Z,1.67
2023-04-06T05:20:50.870Z,1.67
2023-04-06T05:23:20.718Z,1.67
2023-04-06T05:25:50.250Z,1.68
2023-04-06T05:28:22.677Z,1.70
2023-04-06T05:30:51.385Z,1.74
2023-04-06T05:33:20.161Z,1.78
2023-04-06T05:36:08.152Z,1.76
2023-04-06T05:38:42.216Z,1.80
2023-04-06T05:41:35.443Z,1.80
2023-04-06T05:44:04.244Z,1.83
2023-04-06T05:46:33.388Z,1.86
2023-04-06T05:49:03.195Z,1.89
2023-04-06T05:51:35.243Z,1.90
2023-04-06T05:54:06.212Z,1.94
2023-04-06T05:56:35.073Z,1.93
2023-04-06T05:59:04.778Z,1.96
2023-04-06T06:01:33.885Z,2.00
2023-04-06T06:04:02.901Z,2.04
2023-04-06T06:06:33.793Z,2.09
2023-04-06T06:09:21.885Z,2.14
2023-04-06T06:12:08.541Z,2.17
2023-04-06T06:14:37.186Z,2.22
2023-04-06T06:17:05.427Z,2.27
2023-04-06T06:19:33.917Z,2.31
2023-04-06T06:22:06.113Z,2.36
2023-04-06T06:24:39.435Z,2.37
2023-04-06T06:27:08.831Z,2.41
2023-04-06T06:29:39.149Z,2.49
2023-04-06T06:32:09.932Z,2.54
2023-04-06T06:34:39.344Z,2.56
2023-04-06T06:37:09.432Z,2.65
2023-04-06T06:39:41.332Z,2.82
2023-04-06T06:42:09.624Z,2.96
2023-04-06T06:45:03.246Z,3.04
2023-04-06T06:47:31.687Z,3.13
2023-04-06T06:49:59.882Z,3.21
2023-04-06T06:52:29.926Z,3.29
2023-04-06T06:54:59.528Z,3.33
2023-04-06T06:57:28.040Z,3.41
2023-04-06T06:59:56.698Z,3.59
2023-04-06T07:02:25.799Z,3.75
2023-04-06T07:04:54.033Z,3.87
2023-04-06T07:07:22.646Z,4.00
2023-04-06T07:09:50.946Z,4.13
2023-04-06T07:12:20.590Z,4.22
2023-04-06T07:14:48.871Z,4.33
2023-04-06T07:17:17.142Z,4.44
2023-04-06T07:19:46.143Z,4.54
2023-04-06T07:22:14.618Z,4.71
2023-04-06T07:24:42.795Z,4.88
2023-04-06T07:27:10.997Z,4.94
2023-04-06T07:29:40.908Z,4.99
2023-04-06T07:32:09.590Z,5.17
2023-04-06T07:34:37.976Z,5.28
2023-04-06T07:37:06.777Z,5.29
2023-04-06T07:39:36.149Z,5.30
2023-04-06T07:42:04.383Z,5.35
2023-04-06T07:44:32.613Z,5.47
2023-04-06T07:47:02.825Z,5.51
2023-04-06T07:49:31.447Z,5.62
2023-04-06T07:51:59.676Z,5.70
2023-04-06T07:54:29.344Z,5.80
2023-04-06T07:56:57.497Z,5.97
2023-04-06T07:59:26.411Z,6.14
2023-04-06T08:01:54.845Z,6.32
2023-04-06T08:04:24.466Z,6.43
2023-04-06T08:06:52.682Z,6.54
2023-04-06T08:09:20.929Z,6.76
2023-04-06T08:11:49.765Z,6.89
2023-04-06T08:14:18.373Z,6.97
2023-04-06T08:16:46.530Z,7.02
2023-04-06T08:19:14.690Z,7.00
2023-04-06T08:21:44.335Z,7.01
2023-04-06T08:24:12.679Z,7.07
2023-04-06T08:26:40.862Z,7.02
2023-04-06T08:29:09.494Z,7.19
2023-04-06T08:31:37.886Z,7.17
2023-04-06T08:34:06.435Z,7.08
2023-04-06T08:36:34.905Z,7.06
2023-04-06T08:39:04.558Z,7.18
2023-04-06T08:41:33.137Z,7.31
2023-04-06T08:44:01.807Z,7.35
2023-04-06T08:46:31.514Z,7.33
2023-04-06T08:49:00.113Z,7.40
2023-04-06T08:51:28.418Z,7.45
2023-04-06T08:53:56.807Z,7.61
2023-04-06T08:56:27.304Z,7.62
2023-04-06T08:58:56.184Z,7.68
2023-04-06T09:01:26.275Z,7.82
2023-04-06T09:03:57.149Z,7.78
2023-04-06T09:06:25.399Z,7.97
2023-04-06T09:08:55.818Z,8.40
2023-04-06T09:11:24.004Z,8.71
2023-04-06T09:13:54.240Z,8.74
2023-04-06T09:16:22.452Z,8.75
2023-04-06T09:18:51.070Z,8.36
2023-04-06T09:21:19.801Z,8.20
2023-04-06T09:23:49.718Z,8.06
2023-04-06T09:26:18.799Z,8.52
2023-04-06T09:28:47.740Z,8.75
2023-04-06T09:31:17.756Z,9.25
2023-04-06T09:33:47.151Z,9.53
2023-04-06T09:36:16.806Z,9.43
2023-04-06T09:38:55.646Z,9.48
2023-04-06T09:41:25.493Z,9.49
2023-04-06T09:43:54.141Z,9.54
2023-04-06T09:46:24.641Z,9.90
2023-04-06T09:48:52.829Z,9.99
2023-04-06T09:51:22.352Z,10.75
2023-04-06T09:53:53.661Z,10.92
2023-04-06T09:56:24.664Z,11.27
2023-04-06T09:58:53.040Z,11.38
2023-04-06T10:01:21.330Z,11.62
2023-04-06T10:03:54.013Z,12.01
2023-04-06T10:06:26.456Z,12.09
2023-04-06T10:08:55.633Z,12.15
2023-04-06T10:11:23.823Z,12.56
2023-04-06T10:13:51.976Z,12.90
2023-04-06T10:16:20.268Z,13.11
2023-04-06T10:18:52.384Z,13.76
2023-04-06T10:21:22.636Z,13.93
2023-04-06T10:23:51.416Z,13.72
2023-04-06T10:26:22.399Z,13.86
2023-04-06T10:28:51.083Z,14.04
2023-04-06T10:31:27.324Z,14.10
2023-04-06T10:34:00.512Z,13.69
2023-04-06T10:36:29.194Z,12.78
2023-04-06T10:38:58.656Z,12.10
2023-04-06T10:41:27.400Z,11.94
2023-04-06T10:43:58.782Z,12.09
2023-04-06T10:46:27.621Z,12.29
2023-04-06T10:48:55.846Z,12.13
2023-04-06T10:51:29.301Z,12.21
2023-04-06T10:53:57.937Z,12.58
2023-04-06T10:56:29.046Z,13.05
2023-04-06T10:58:58.031Z,13.61
2023-04-06T11:01:27.710Z,13.83
2023-04-06T11:03:59.157Z,13.73
2023-04-06T11:06:30.392Z,13.95
2023-04-06T11:08:58.910Z,13.48
2023-04-06T11:11:28.167Z,13.76
2023-04-06T11:13:57.603Z,14.13
2023-04-06T11:16:27.577Z,14.30
2023-04-06T11:18:57.240Z,13.78
2023-04-06T11:21:47.719Z,12.60
2023-04-06T11:24:17.358Z,12.04
2023-04-06T11:26:46.890Z,12.14
2023-04-06T11:29:15.233Z,12.63
2023-04-06T11:31:43.847Z,13.19
2023-04-06T11:34:13.331Z,13.46
2023-04-06T11:36:46.341Z,13.47
2023-04-06T11:39:14.619Z,13.31
2023-04-06T11:41:43.155Z,13.27
2023-04-06T11:44:11.342Z,13.72
2023-04-06T11:46:39.557Z,13.83
2023-04-06T11:49:07.830Z,14.15
2023-04-06T11:51:38.076Z,14.01
2023-04-06T11:54:08.306Z,14.13
2023-04-06T11:56:36.670Z,14.03
2023-04-06T11:59:04.993Z,13.52
2023-04-06T12:01:38.813Z,13.36
2023-04-06T12:04:07.606Z,13.21
2023-04-06T12:06:36.254Z,12.81
2023-04-06T12:09:04.896Z,12.85
2023-04-06T12:11:34.555Z,12.85
2023-04-06T12:14:05.769Z,12.76
2023-04-06T12:16:34.205Z,12.38
2023-04-06T12:19:02.790Z,11.77
2023-04-06T12:21:32.015Z,11.64
2023-04-06T12:24:00.718Z,11.73
2023-04-06T12:26:29.090Z,11.81
2023-04-06T12:29:00.339Z,11.98
2023-04-06T12:31:28.617Z,11.73
2023-04-06T12:33:56.827Z,11.63
2023-04-06T12:36:25.956Z,11.19
2023-04-06T12:38:54.119Z,11.18
2023-04-06T12:41:24.487Z,11.23
2023-04-06T12:43:52.653Z,11.41
2023-04-06T12:46:22.227Z,11.52
2023-04-06T12:48:50.621Z,11.44
2023-04-06T12:51:19.463Z,11.19
2023-04-06T12:53:47.628Z,11.19
2023-04-06T12:56:16.703Z,11.26
2023-04-06T12:58:53.583Z,11.14
2023-04-06T13:01:23.340Z,11.03
2023-04-06T13:03:52.440Z,11.02
2023-04-06T13:06:20.785Z,10.73
2023-04-06T13:08:51.130Z,10.64
2023-04-06T13:11:21.525Z,10.47
2023-04-06T13:13:49.705Z,10.59
2023-04-06T13:16:18.012Z,10.49
2023-04-06T13:18:48.089Z,10.19
2023-04-06T13:21:17.599Z,10.08
2023-04-06T13:23:45.885Z,10.04
2023-04-06T13:26:16.185Z,10.17
2023-04-06T13:28:44.499Z,10.25
2023-04-06T13:31:12.957Z,10.13
2023-04-06T13:33:41.909Z,10.00
2023-04-06T13:36:11.577Z,9.86
2023-04-06T13:38:40.363Z,9.77
2023-04-06T13:41:08.631Z,9.83
2023-04-06T13:43:37.151Z,9.80
2023-04-06T13:46:06.019Z,9.79
2023-04-06T13:48:34.165Z,9.87
2023-04-06T13:51:11.878Z,9.84
2023-04-06T13:53:41.595Z,9.94
2023-04-06T13:56:10.475Z,10.09
2023-04-06T13:58:38.575Z,10.07
2023-04-06T14:01:08.278Z,10.13
2023-04-06T14:03:37.109Z,10.13
2023-04-06T14:06:26.936Z,10.13
2023-04-06T14:08:59.187Z,10.05
2023-04-06T14:11:27.511Z,10.07
2023-04-06T14:13:58.247Z,10.10
2023-04-06T14:16:27.457Z,10.11
2023-04-06T14:18:56.017Z,10.08
2023-04-06T14:21:25.754Z,10.07
2023-04-06T14:23:53.855Z,10.12
2023-04-06T14:26:21.984Z,10.17
2023-04-06T14:28:50.568Z,10.17
2023-04-06T14:31:18.763Z,10.18
2023-04-06T14:33:47.436Z,10.16
2023-04-06T14:36:15.767Z,10.20
2023-04-06T14:38:47.593Z,10.30
2023-04-06T14:41:19.189Z,10.37
2023-04-06T14:43:48.274Z,10.47
2023-04-06T14:46:16.816Z,10.36
2023-04-06T14:48:45.051Z,10.41
2023-04-06T14:51:13.212Z,10.51
2023-04-06T14:53:41.349Z,10.51
2023-04-06T14:56:11.442Z,10.54
2023-04-06T14:58:39.514Z,10.57
2023-04-06T15:01:07.706Z,10.58
2023-04-06T15:03:35.980Z,10.56
2023-04-06T15:06:04.130Z,10.61
2023-04-06T15:08:32.448Z,10.51
2023-04-06T15:11:01.598Z,10.47
2023-04-06T15:13:31.074Z,10.55
2023-04-06T15:16:01.289Z,10.55
2023-04-06T15:18:30.122Z,10.60
2023-04-06T15:20:58.536Z,10.60
2023-04-06T15:23:26.682Z,10.43
2023-04-06T15:25:54.738Z,10.46
2023-04-06T15:28:22.886Z,10.54
2023-04-06T15:30:52.522Z,10.51
2023-04-06T15:33:21.947Z,10.39
2023-04-06T15:35:50.528Z,10.33
2023-04-06T15:38:18.626Z,10.25
2023-04-06T15:40:47.222Z,10.21
2023-04-06T15:43:15.542Z,10.18
2023-04-06T15:45:43.749Z,10.10
2023-04-06T15:48:13.273Z,10.01
2023-04-06T15:50:41.735Z,9.98
2023-04-06T15:53:09.904Z,9.89
2023-04-06T15:55:37.952Z,9.80
2023-04-06T15:58:07.586Z,9.71
2023-04-06T16:00:35.844Z,9.63
2023-04-06T16:03:04.084Z,9.55
2023-04-06T16:05:34.858Z,9.44
2023-04-06T16:08:08.754Z,9.35
2023-04-06T16:10:37.081Z,9.29
2023-04-06T16:13:05.146Z,9.22
2023-04-06T16:15:33.147Z,9.16
2023-04-06T16:18:02.495Z,9.02
2023-04-06T16:20:30.617Z,8.92
2023-04-06T16:23:00.122Z,8.84
2023-04-06T16:25:28.400Z,8.75
2023-04-06T16:27:56.575Z,8.60
2023-04-06T16:30:26.122Z,8.41
2023-04-06T16:32:54.600Z,8.23
2023-04-06T16:35:23.311Z,8.06
2023-04-06T16:37:52.424Z,7.89
2023-04-06T16:40:21.886Z,7.73
2023-04-06T16:42:50.031Z,7.58
2023-04-06T16:45:18.585Z,7.44
2023-04-06T16:47:47.723Z,7.31
2023-04-06T16:50:15.858Z,7.19
2023-04-06T16:52:43.935Z,7.03
2023-04-06T16:55:12.361Z,6.89
2023-04-06T16:57:41.855Z,6.75
2023-04-06T17:00:11.196Z,6.67
2023-04-06T17:02:39.425Z,6.56
2023-04-06T17:05:08.154Z,6.46
2023-04-06T17:07:36.358Z,6.34
2023-04-06T17:10:04.821Z,6.25
2023-04-06T17:12:32.906Z,6.16
2023-04-06T17:15:02.699Z,6.07
2023-04-06T17:17:30.743Z,5.92
2023-04-06T17:19:58.991Z,5.80
2023-04-06T17:22:27.154Z,5.71
2023-04-06T17:24:59.006Z,5.66
2023-04-06T17:27:28.247Z,5.62
2023-04-06T17:29:56.376Z,5.55
2023-04-06T17:32:27.893Z,5.47
2023-04-06T17:34:56.052Z,5.42
2023-04-06T17:37:24.130Z,5.33
2023-04-06T17:39:52.136Z,5.21
2023-04-06T17:42:20.550Z,5.12
2023-04-06T17:44:52.452Z,5.02
2023-04-06T17:47:21.254Z,4.89
2023-04-06T17:49:50.719Z,4.78
2023-04-06T17:52:18.763Z,4.68
2023-04-06T17:54:46.824Z,4.58
2023-04-06T17:57:14.979Z,4.46
2023-04-06T17:59:45.263Z,4.35
2023-04-06T18:02:14.366Z,4.26
2023-04-06T18:04:44.284Z,4.16
2023-04-06T18:07:16.545Z,4.05
2023-04-06T18:09:44.949Z,3.93
2023-04-06T18:12:13.030Z,3.82
2023-04-06T18:14:41.359Z,3.75
2023-04-06T18:17:09.508Z,3.70
2023-04-06T18:19:37.646Z,3.62
2023-04-06T18:22:05.667Z,3.53
2023-04-06T18:24:42.265Z,3.44
2023-04-06T18:27:11.222Z,3.36
2023-04-06T18:29:39.283Z,3.30
2023-04-06T18:32:07.444Z,3.22
2023-04-06T18:34:36.146Z,3.15
2023-04-06T18:37:04.747Z,3.08
2023-04-06T18:39:33.078Z,3.01
2023-04-06T18:42:03.061Z,2.92
2023-04-06T18:44:31.638Z,2.84
2023-04-06T18:47:00.156Z,2.79
2023-04-06T18:49:28.431Z,2.73
2023-04-06T18:51:59.362Z,2.71
2023-04-06T18:54:27.572Z,2.68
2023-04-06T18:56:56.316Z,2.64
2023-04-06T18:59:30.118Z,2.60
2023-04-06T19:01:59.387Z,2.59
2023-04-06T19:04:29.517Z,2.49
2023-04-06T19:06:57.740Z,2.45
2023-04-06T19:09:26.525Z,2.39
2023-04-06T19:11:54.628Z,2.35
2023-04-06T19:14:22.732Z,2.27
2023-04-06T19:16:52.947Z,2.19
2023-04-06T19:19:21.562Z,2.10
2023-04-06T19:21:49.676Z,2.00
2023-04-06T19:24:17.764Z,1.98
2023-04-06T19:26:46.134Z,1.93
2023-04-06T19:29:14.226Z,1.88
2023-04-06T19:31:42.331Z,1.83
2023-04-06T19:34:17.390Z,1.74
2023-04-06T19:36:45.810Z,1.72
2023-04-06T19:39:16.653Z,1.67
2023-04-06T19:41:44.763Z,1.61
2023-04-06T19:46:42.566Z,1.56
2023-04-06T19:49:12.359Z,1.53
2023-04-06T19:51:40.468Z,1.48
2023-04-06T19:54:08.562Z,1.41
2023-04-06T19:56:36.644Z,1.36
2023-04-06T19:59:05.374Z,1.30
2023-04-06T20:01:33.522Z,1.23
2023-04-06T20:04:01.836Z,1.19
2023-04-06T20:06:32.770Z,1.13
2023-04-06T20:09:00.896Z,1.12
2023-04-06T20:11:28.999Z,1.08
2023-04-06T20:13:57.561Z,1.03
2023-04-06T20:16:25.678Z,1.00
2023-04-06T20:18:53.735Z,0.95
2023-04-06T20:21:21.848Z,0.92
2023-04-06T20:23:51.311Z,0.87
2023-04-06T20:26:19.746Z,0.83
2023-04-06T20:28:47.882Z,0.79
2023-04-06T20:31:15.935Z,0.78
2023-04-06T20:33:44.014Z,0.69
2023-04-06T20:36:12.730Z,0.66
2023-04-06T20:38:41.619Z,0.67
2023-04-06T20:41:11.040Z,0.64
2023-04-06T20:43:39.086Z,0.63
2023-04-06T20:46:07.566Z,0.61
2023-04-06T20:48:38.111Z,0.56
2023-04-06T20:51:06.741Z,0.52
2023-04-06T20:53:34.800Z,0.48
2023-04-06T20:56:02.859Z,0.48
2023-04-06T20:58:32.404Z,0.43
2023-04-06T21:01:00.570Z,0.41
2023-04-06T21:03:29.316Z,0.38
2023-04-06T21:05:58.342Z,0.38
2023-04-06T21:08:26.562Z,0.31
2023-04-06T21:10:54.669Z,0.26
2023-04-06T21:13:22.786Z,0.26
2023-04-06T21:15:52.595Z,0.21
2023-04-06T21:18:21.781Z,0.20
2023-04-06T21:20:50.240Z,0.16
2023-04-06T21:23:18.361Z,0.12
2023-04-06T21:25:46.394Z,0.10
2023-04-06T21:28:14.483Z,0.08
2023-04-06T21:30:43.483Z,0.05
2023-04-06T21:33:13.512Z,0.03
2023-04-06T21:35:42.310Z,0.03
2023-04-06T21:38:10.687Z,0.01
2023-04-06T21:40:38.861Z,-0.02
2023-04-06T21:43:06.952Z,-0.07
2023-04-06T21:45:35.040Z,-0.12
2023-04-06T21:48:03.670Z,-0.16
2023-04-06T21:50:33.225Z,-0.17
2023-04-06T21:53:01.313Z,-0.21
2023-04-06T21:55:29.447Z,-0.22
2023-04-06T21:57:57.547Z,-0.25
2023-04-06T22:00:26.133Z,-0.26
2023-04-06T22:02:54.512Z,-0.31
2023-04-06T22:05:22.827Z,-0.34
2023-04-06T22:07:53.752Z,-0.36
2023-04-06T22:10:22.200Z,-0.40
2023-04-06T22:12:50.724Z,-0.37
2023-04-06T22:15:19.269Z,-0.34
2023-04-06T22:17:47.332Z,-0.39
2023-04-06T22:20:15.742Z,-0.40
2023-04-06T22:22:43.898Z,-0.39
2023-04-06T22:25:13.804Z,-0.42
2023-04-06T22:27:41.976Z,-0.45
2023-04-06T22:30:11.572Z,-0.47
2023-04-06T22:32:39.633Z,-0.45
2023-04-06T22:35:09.023Z,-0.47
2023-04-06T22:37:37.139Z,-0.44
2023-04-06T22:40:05.671Z,-0.46
2023-04-06T22:42:35.486Z,-0.43
2023-04-06T22:45:03.563Z,-0.43
2023-04-06T22:47:31.746Z,-0.41
2023-04-06T22:49:59.866Z,-0.43
2023-04-06T22:52:27.899Z,-0.45
2023-04-06T22:54:56.606Z,-0.47
2023-04-06T22:57:24.732Z,-0.51
2023-04-06T22:59:54.203Z,-0.51
2023-04-06T23:02:22.413Z,-0.49
2023-04-06T23:04:50.635Z,-0.48
2023-04-06T23:07:18.684Z,-0.51
2023-04-06T23:09:47.204Z,-0.52
2023-04-06T23:12:15.544Z,-0.54
2023-04-06T23:14:43.694Z,-0.56
2023-04-06T23:17:13.422Z,-0.55
2023-04-06T23:19:41.739Z,-0.57
2023-04-06T23:22:10.277Z,-0.66
2023-04-06T23:24:38.673Z,-0.66
2023-04-06T23:27:07.088Z,-0.67
2023-04-06T23:29:35.735Z,-0.66
2023-04-06T23:32:03.945Z,-0.71
2023-04-06T23:34:33.987Z,-0.71
2023-04-06T23:37:03.220Z,-0.75
2023-04-06T23:39:31.701Z,-0.77
2023-04-06T23:42:00.229Z,-0.75
2023-04-06T23:44:30.889Z,-0.75
2023-04-06T23:46:59.011Z,-0.75
2023-04-06T23:49:27.404Z,-0.76
2023-04-06T23:51:57.729Z,-0.79
2023-04-06T23:54:26.239Z,-0.80
2023-04-06T23:56:57.055Z,-0.79
2023-04-06T23:59:25.461Z,-0.82
